Time;durP1;ratioP1;P1;durP2;ratioP2;P2;SDS_P1;SDS_P2;PMS_P1;PMS_P2;Temp;Humidity;BMP_temperature;BMP_pressure;BME280_temperature;BME280_humidity;BME280_pressure;Samples;Min_cycle;Max_cycle;Signal;HPM_P1;HPM_P2
2022/09/23 00:01:18;;;;;;;0.10;0.10;;;6.70;99.90;;;;;;4994256;28;20240;-75
2022/09/23 00:03:47;;;;;;;0.10;0.10;;;6.80;99.90;;;;;;4994579;28;20250;-75
2022/09/23 00:06:17;;;;;;;0.10;0.10;;;6.80;99.90;;;;;;5001077;28;20290;-75
2022/09/23 00:08:49;;;;;;;0.10;0.10;;;6.80;99.90;;;;;;5014221;28;20200;-75
2022/09/23 00:11:18;;;;;;;0.10;0.10;;;6.70;99.90;;;;;;5011026;28;20208;-75
2022/09/23 00:13:48;;;;;;;0.10;0.10;;;6.60;99.90;;;;;;4998294;28;20208;-75
2022/09/23 00:16:20;;;;;;;0.10;0.10;;;6.70;99.90;;;;;;5003841;28;20226;-74
2022/09/23 00:18:49;;;;;;;0.10;0.10;;;6.80;99.90;;;;;;5015854;28;20242;-74
2022/09/23 00:21:18;;;;;;;0.10;0.10;;;6.90;99.90;;;;;;5009675;28;20212;-74
2022/09/23 00:23:45;;;;;;;0.03;0.03;;;6.70;99.90;;;;;;5011830;28;20200;-75
2022/09/23 00:26:17;;;;;;;0.10;0.10;;;6.80;99.90;;;;;;5014635;28;20199;-74
2022/09/23 00:28:46;;;;;;;0.08;0.08;;;6.90;99.90;;;;;;5014466;28;20199;-74
2022/09/23 00:31:17;;;;;;;0.10;0.10;;;6.80;99.90;;;;;;5009049;28;20627;-74
2022/09/23 00:33:46;;;;;;;0.10;0.10;;;6.70;99.90;;;;;;4993268;28;20668;-74
2022/09/23 00:36:15;;;;;;;0.10;0.10;;;6.70;99.90;;;;;;5002837;28;20235;-76
2022/09/23 00:38:44;;;;;;;0.10;0.10;;;6.70;99.90;;;;;;5012726;28;20200;-75
2022/09/23 00:41:13;;;;;;;0.03;0.03;;;6.60;99.90;;;;;;5008190;28;20227;-75
2022/09/23 00:43:46;;;;;;;0.00;0.00;;;6.60;99.90;;;;;;4999562;28;20211;-77
2022/09/23 00:46:18;;;;;;;0.00;0.00;;;6.60;99.90;;;;;;5008053;28;20212;-76
2022/09/23 00:48:49;;;;;;;0.03;0.03;;;6.60;99.90;;;;;;5009140;28;20184;-75
2022/09/23 00:51:23;;;;;;;0.00;0.00;;;6.60;99.90;;;;;;5011379;28;20216;-74
2022/09/23 00:53:52;;;;;;;0.10;0.10;;;6.60;99.90;;;;;;5004211;28;20184;-74
2022/09/23 00:56:22;;;;;;;0.03;0.03;;;6.60;99.90;;;;;;5006111;28;20208;-76
2022/09/23 00:58:52;;;;;;;0.08;0.08;;;6.60;99.90;;;;;;5002437;28;20196;-78
2022/09/23 01:01:20;;;;;;;0.05;0.05;;;6.60;99.90;;;;;;4997969;28;20286;-73
2022/09/23 01:03:50;;;;;;;0.10;0.10;;;6.70;99.90;;;;;;4992433;28;20201;-73
2022/09/23 01:06:18;;;;;;;0.10;0.10;;;6.70;99.90;;;;;;5004428;28;20227;-73
2022/09/23 01:08:47;;;;;;;0.10;0.10;;;6.60;99.90;;;;;;5012791;28;20191;-73
2022/09/23 01:11:27;;;;;;;0.10;0.10;;;6.50;99.90;;;;;;5010271;28;20238;-76
2022/09/23 01:14:05;;;;;;;0.10;0.10;;;6.30;99.90;;;;;;5012698;28;20253;-75
2022/09/23 01:16:39;;;;;;;0.10;0.10;;;6.30;99.90;;;;;;5011858;28;20616;-75
2022/09/23 01:19:24;;;;;;;0.10;0.10;;;6.40;99.90;;;;;;5010431;28;20207;-74
2022/09/23 01:22:00;;;;;;;0.10;0.10;;;6.30;99.90;;;;;;5011357;28;20188;-74
2022/09/23 01:24:48;;;;;;;0.03;0.03;;;6.30;99.90;;;;;;5012600;28;20203;-74
2022/09/23 01:27:28;;;;;;;0.00;0.00;;;6.40;99.90;;;;;;4973135;28;20271;-74
2022/09/23 01:30:19;;;;;;;0.00;0.00;;;6.40;99.90;;;;;;4988696;28;20270;-73
2022/09/23 01:32:58;;;;;;;0.10;0.10;;;6.30;99.90;;;;;;5010404;28;20219;-75
2022/09/23 01:35:34;;;;;;;0.08;0.08;;;6.40;99.90;;;;;;5012125;28;20207;-73
2022/09/23 01:38:13;;;;;;;0.10;0.10;;;6.30;99.90;;;;;;5012062;28;20249;-75
2022/09/23 01:40:49;;;;;;;0.00;0.00;;;6.30;99.90;;;;;;5012239;28;20215;-73
2022/09/23 01:43:23;;;;;;;0.10;0.10;;;6.20;99.90;;;;;;5012086;28;20676;-77
2022/09/23 01:45:55;;;;;;;0.00;0.00;;;6.10;99.90;;;;;;5005065;28;20200;-74
2022/09/23 01:48:33;;;;;;;0.10;0.10;;;6.20;99.90;;;;;;4996028;28;20261;-75
2022/09/23 01:51:05;;;;;;;0.10;0.10;;;6.20;99.90;;;;;;4980178;28;20228;-78
2022/09/23 01:53:39;;;;;;;0.10;0.10;;;6.20;99.90;;;;;;4997829;28;20278;-74
2022/09/23 01:56:12;;;;;;;0.10;0.10;;;6.10;99.90;;;;;;5012394;28;20192;-74
2022/09/23 01:58:45;;;;;;;0.10;0.10;;;5.90;99.90;;;;;;5016418;28;20203;-76
2022/09/23 02:01:18;;;;;;;0.10;0.10;;;5.90;99.90;;;;;;5028573;23;20221;-73
2022/09/23 02:03:54;;;;;;;0.00;0.00;;;5.90;99.90;;;;;;4959059;28;20205;-73
2022/09/23 02:06:26;;;;;;;0.10;0.10;;;5.90;99.90;;;;;;4970134;28;20805;-73
2022/09/23 02:08:59;;;;;;;0.10;0.10;;;6.00;99.90;;;;;;4970627;28;20232;-73
2022/09/23 02:11:28;;;;;;;0.10;0.10;;;6.10;99.90;;;;;;4966197;28;20217;-72
2022/09/23 02:14:02;;;;;;;0.10;0.10;;;6.00;99.90;;;;;;4975846;28;20220;-73
2022/09/23 02:16:33;;;;;;;0.10;0.10;;;5.90;99.90;;;;;;4975853;28;20232;-73
2022/09/23 02:19:10;;;;;;;0.10;0.10;;;5.90;99.90;;;;;;4975579;28;20205;-73
2022/09/23 02:21:43;;;;;;;0.08;0.08;;;5.80;99.90;;;;;;4964848;28;20225;-74
2022/09/23 02:24:14;;;;;;;0.10;0.10;;;5.90;99.90;;;;;;4926695;29;20217;-74
2022/09/23 02:26:49;;;;;;;0.00;0.00;;;5.90;99.90;;;;;;4953023;28;20205;-73
2022/09/23 02:29:20;;;;;;;0.10;0.10;;;5.90;99.90;;;;;;4955920;28;20674;-72
2022/09/23 02:31:57;;;;;;;0.10;0.10;;;5.90;99.90;;;;;;4940001;29;20249;-73
2022/09/23 02:34:35;;;;;;;0.10;0.10;;;5.90;99.90;;;;;;4956225;28;20205;-73
2022/09/23 02:37:11;;;;;;;0.10;0.10;;;5.70;99.90;;;;;;4974133;28;20251;-72
2022/09/23 02:39:48;;;;;;;0.10;0.10;;;5.60;99.90;;;;;;4975469;28;20197;-73
2022/09/23 02:42:21;;;;;;;0.10;0.10;;;5.70;99.90;;;;;;4961858;28;20276;-72
2022/09/23 02:44:49;;;;;;;0.10;0.10;;;5.60;99.90;;;;;;4957513;28;20222;-73
2022/09/23 02:47:22;;;;;;;0.10;0.10;;;5.70;99.90;;;;;;4955910;29;20198;-72
2022/09/23 02:49:52;;;;;;;0.10;0.10;;;5.60;99.90;;;;;;4956212;29;20256;-73
2022/09/23 02:52:20;;;;;;;0.10;0.10;;;5.60;99.90;;;;;;4955791;29;20217;-73
2022/09/23 02:54:47;;;;;;;0.10;0.10;;;5.60;99.90;;;;;;4959792;28;20196;-74
2022/09/23 02:57:15;;;;;;;0.00;0.00;;;5.60;99.90;;;;;;4975052;28;20200;-73
2022/09/23 02:59:45;;;;;;;0.10;0.10;;;5.60;99.90;;;;;;4975071;28;20197;-71
2022/09/23 03:02:39;;;;;;;0.10;0.10;;;5.60;99.90;;;;;;4975529;28;20703;-72
2022/09/23 03:05:18;;;;;;;0.10;0.10;;;5.60;99.90;;;;;;4960589;28;20288;-72
2022/09/23 03:07:56;;;;;;;0.10;0.10;;;5.50;99.90;;;;;;4955597;29;20217;-71
2022/09/23 03:10:28;;;;;;;0.10;0.10;;;5.50;99.90;;;;;;4956016;29;20206;-72
2022/09/23 03:13:04;;;;;;;0.10;0.10;;;5.50;99.90;;;;;;4964096;28;20762;-72
2022/09/23 03:15:37;;;;;;;0.10;0.10;;;5.60;99.90;;;;;;4964571;28;20197;-72
2022/09/23 03:18:13;;;;;;;0.10;0.10;;;5.60;99.90;;;;;;4954973;29;20724;-72
2022/09/23 03:20:49;;;;;;;0.10;0.10;;;5.60;99.90;;;;;;4955587;29;20673;-72
2022/09/23 03:23:22;;;;;;;0.10;0.10;;;5.60;99.90;;;;;;4955125;29;20620;-72
2022/09/23 03:25:53;;;;;;;0.10;0.10;;;5.50;99.90;;;;;;4967081;28;20201;-72
2022/09/23 03:28:24;;;;;;;0.10;0.10;;;5.50;99.90;;;;;;4974447;28;20205;-72
2022/09/23 03:30:54;;;;;;;0.10;0.10;;;5.40;99.90;;;;;;4971905;28;20269;-72
2022/09/23 03:33:26;;;;;;;0.10;0.10;;;5.50;99.90;;;;;;4954960;29;20221;-72
2022/09/23 03:38:51;;;;;;;0.10;0.10;;;5.50;99.90;;;;;;4954640;29;20198;-72
2022/09/23 03:41:28;;;;;;;0.05;0.05;;;5.60;99.90;;;;;;4956048;28;20229;-71
2022/09/23 03:43:58;;;;;;;0.10;0.10;;;5.50;99.90;;;;;;4974547;28;20197;-71
2022/09/23 03:46:27;;;;;;;0.10;0.10;;;5.40;99.90;;;;;;4957807;28;20248;-71
2022/09/23 03:49:00;;;;;;;0.10;0.10;;;5.30;99.90;;;;;;4954683;29;20202;-72
2022/09/23 03:51:29;;;;;;;0.10;0.10;;;5.30;99.90;;;;;;4950679;28;20234;-71
2022/09/23 03:53:57;;;;;;;0.10;0.10;;;5.20;99.90;;;;;;4956795;28;20260;-72
2022/09/23 03:56:25;;;;;;;0.10;0.10;;;5.20;99.90;;;;;;4968917;28;20544;-71
2022/09/23 03:58:53;;;;;;;0.10;0.10;;;5.30;99.90;;;;;;4954285;29;20292;-72
2022/09/23 04:01:20;;;;;;;0.10;0.10;;;5.40;99.90;;;;;;4963300;28;20288;-72
2022/09/23 04:03:48;;;;;;;0.03;0.03;;;5.30;99.90;;;;;;4974124;28;20228;-72
2022/09/23 04:06:16;;;;;;;0.10;0.10;;;5.50;99.90;;;;;;4961238;28;20712;-73
2022/09/23 04:08:45;;;;;;;0.03;0.03;;;5.50;99.90;;;;;;4973086;28;20200;-72
2022/09/23 04:11:13;;;;;;;0.00;0.00;;;5.60;99.90;;;;;;4961241;28;20274;-73
2022/09/23 04:13:40;;;;;;;0.10;0.10;;;5.70;99.90;;;;;;4940935;29;20268;-72
2022/09/23 04:16:08;;;;;;;0.10;0.10;;;5.60;99.90;;;;;;4960000;28;20676;-72
2022/09/23 04:18:36;;;;;;;0.10;0.10;;;5.70;99.90;;;;;;4974226;28;20292;-72
2022/09/23 04:21:04;;;;;;;0.10;0.10;;;5.60;99.90;;;;;;4962735;28;20264;-73
2022/09/23 04:23:32;;;;;;;0.10;0.10;;;5.60;99.90;;;;;;4974139;28;20205;-72
2022/09/23 04:26:01;;;;;;;0.10;0.10;;;5.50;99.90;;;;;;4975870;28;20205;-72
2022/09/23 04:28:29;;;;;;;0.10;0.10;;;5.60;99.90;;;;;;4963903;28;20228;-72
2022/09/23 04:30:57;;;;;;;0.10;0.10;;;5.60;99.90;;;;;;4960606;28;20257;-71
2022/09/23 04:33:25;;;;;;;0.10;0.10;;;5.50;99.90;;;;;;4963464;28;20233;-71
2022/09/23 04:35:55;;;;;;;0.13;0.13;;;5.30;99.90;;;;;;4949911;28;20445;-73
2022/09/23 04:38:23;;;;;;;0.10;0.10;;;5.30;99.90;;;;;;4961387;28;20197;-74
2022/09/23 04:40:51;;;;;;;0.10;0.10;;;5.30;99.90;;;;;;4962386;28;20226;-73
2022/09/23 04:43:22;;;;;;;0.10;0.10;;;5.30;99.90;;;;;;4950764;28;20337;-73
2022/09/23 04:45:58;;;;;;;0.10;0.10;;;5.30;99.90;;;;;;4948804;28;20205;-73
2022/09/23 04:48:26;;;;;;;0.10;0.10;;;5.30;99.90;;;;;;4952826;28;20669;-73
2022/09/23 04:50:54;;;;;;;0.10;0.10;;;5.20;99.90;;;;;;4945408;29;20205;-73
2022/09/23 04:53:22;;;;;;;0.10;0.10;;;5.20;99.90;;;;;;4950725;28;20210;-73
2022/09/23 04:55:51;;;;;;;0.10;0.10;;;5.30;99.90;;;;;;4937896;29;20229;-73
2022/09/23 04:58:21;;;;;;;0.10;0.10;;;5.20;99.90;;;;;;4948759;28;20203;-72
2022/09/23 05:00:49;;;;;;;0.00;0.00;;;5.20;99.90;;;;;;4928450;28;20276;-74
2022/09/23 05:03:17;;;;;;;0.10;0.10;;;5.20;99.90;;;;;;4956374;28;20317;-74
2022/09/23 05:05:45;;;;;;;0.10;0.10;;;5.20;99.90;;;;;;4966089;28;20201;-74
2022/09/23 05:08:13;;;;;;;0.10;0.10;;;5.20;99.90;;;;;;4968071;28;20205;-73
2022/09/23 05:10:41;;;;;;;0.00;0.00;;;5.20;99.90;;;;;;4972678;28;20201;-73
2022/09/23 05:13:09;;;;;;;0.05;0.05;;;5.20;99.90;;;;;;4951495;28;20210;-73
2022/09/23 05:15:38;;;;;;;0.10;0.10;;;5.30;99.90;;;;;;4957737;28;20761;-72
2022/09/23 05:18:05;;;;;;;0.10;0.10;;;5.20;99.90;;;;;;4953245;28;20665;-71
2022/09/23 05:20:33;;;;;;;0.03;0.03;;;5.30;99.90;;;;;;4939867;28;20751;-72
2022/09/23 05:23:01;;;;;;;0.10;0.10;;;5.30;99.90;;;;;;4953072;28;20787;-72
2022/09/23 05:25:29;;;;;;;0.03;0.03;;;5.20;99.90;;;;;;4956290;28;20201;-72
2022/09/23 05:27:57;;;;;;;0.10;0.10;;;5.30;99.90;;;;;;4952818;28;20622;-73
2022/09/23 05:30:25;;;;;;;0.10;0.10;;;5.30;99.90;;;;;;4951413;28;20295;-73
2022/09/23 05:32:55;;;;;;;0.10;0.10;;;5.30;99.90;;;;;;4966757;28;20734;-72
2022/09/23 05:35:23;;;;;;;0.00;0.00;;;5.30;99.90;;;;;;4968026;28;20227;-74
2022/09/23 05:37:52;;;;;;;0.10;0.10;;;5.30;99.90;;;;;;4947600;28;20201;-73
2022/09/23 05:40:20;;;;;;;0.10;0.10;;;5.40;99.90;;;;;;4935941;29;20208;-73
2022/09/23 05:42:50;;;;;;;0.00;0.00;;;5.40;99.90;;;;;;4964234;28;20256;-72
2022/09/23 05:45:18;;;;;;;0.10;0.10;;;5.40;99.90;;;;;;4960043;28;20257;-75
2022/09/23 05:47:46;;;;;;;0.00;0.00;;;5.40;99.90;;;;;;4936133;28;20308;-73
2022/09/23 05:50:16;;;;;;;0.10;0.10;;;5.50;99.90;;;;;;4953068;29;20202;-73
2022/09/23 05:52:45;;;;;;;0.10;0.10;;;5.50;99.90;;;;;;4963424;28;20629;-76
2022/09/23 05:55:13;;;;;;;0.10;0.10;;;5.60;99.90;;;;;;4949996;28;20229;-73
2022/09/23 05:57:42;;;;;;;0.10;0.10;;;5.60;99.90;;;;;;4952746;28;20672;-74
2022/09/23 06:00:11;;;;;;;0.10;0.10;;;5.70;99.90;;;;;;4952390;28;20200;-74
2022/09/23 06:02:39;;;;;;;0.10;0.10;;;5.60;99.90;;;;;;4964678;28;20715;-73
2022/09/23 06:05:08;;;;;;;0.05;0.05;;;5.60;99.90;;;;;;4946254;28;20225;-74
2022/09/23 06:07:38;;;;;;;0.10;0.10;;;5.60;99.90;;;;;;4959567;28;20256;-74
2022/09/23 06:10:07;;;;;;;0.10;0.10;;;5.70;99.90;;;;;;4960083;28;20224;-73
2022/09/23 06:12:35;;;;;;;0.10;0.10;;;5.70;99.90;;;;;;4960774;28;20265;-74
2022/09/23 06:15:03;;;;;;;0.10;0.10;;;5.80;99.90;;;;;;4956076;28;20305;-74
2022/09/23 06:17:31;;;;;;;0.10;0.10;;;5.80;99.90;;;;;;4961272;28;20231;-73
2022/09/23 06:19:58;;;;;;;0.10;0.10;;;5.90;99.90;;;;;;4954079;28;20752;-74
2022/09/23 06:22:26;;;;;;;0.10;0.10;;;6.00;99.90;;;;;;4969125;28;20633;-73
2022/09/23 06:24:55;;;;;;;0.10;0.10;;;6.00;99.90;;;;;;4952594;29;20201;-73
2022/09/23 06:27:23;;;;;;;0.10;0.10;;;6.10;99.90;;;;;;4952481;28;20256;-73
2022/09/23 06:29:51;;;;;;;0.10;0.10;;;6.10;99.90;;;;;;4956014;28;20197;-74
2022/09/23 06:32:19;;;;;;;0.00;0.00;;;6.20;99.90;;;;;;4962665;28;20221;-74
2022/09/23 06:34:47;;;;;;;0.10;0.10;;;6.30;99.90;;;;;;4974955;28;20213;-73
2022/09/23 06:37:18;;;;;;;0.10;0.10;;;6.30;99.90;;;;;;4972363;28;20213;-73
2022/09/23 06:39:47;;;;;;;0.10;0.10;;;6.30;99.90;;;;;;4957247;28;20265;-74
2022/09/23 06:42:17;;;;;;;0.10;0.10;;;6.40;99.90;;;;;;4967069;28;20367;-74
2022/09/23 06:44:45;;;;;;;0.10;0.10;;;6.50;99.90;;;;;;4959274;28;20197;-74
2022/09/23 06:47:13;;;;;;;0.10;0.10;;;6.60;99.90;;;;;;4957811;28;20260;-74
2022/09/23 06:49:41;;;;;;;0.10;0.10;;;6.70;99.90;;;;;;4957023;28;20213;-74
2022/09/23 06:52:08;;;;;;;0.10;0.10;;;6.80;99.90;;;;;;4961287;28;20304;-74
2022/09/23 06:54:36;;;;;;;0.10;0.10;;;6.90;99.90;;;;;;4971472;28;20364;-74
2022/09/23 06:57:04;;;;;;;0.10;0.10;;;7.00;99.90;;;;;;4957359;28;20237;-75
2022/09/23 06:59:34;;;;;;;0.10;0.10;;;7.10;99.90;;;;;;4956975;28;20206;-74
2022/09/23 07:02:02;;;;;;;0.08;0.08;;;7.20;99.90;;;;;;4966701;28;20606;-75
2022/09/23 07:04:30;;;;;;;0.10;0.10;;;7.30;99.90;;;;;;4975548;28;20189;-74
2022/09/23 07:06:58;;;;;;;0.10;0.10;;;7.40;99.90;;;;;;4964014;28;20205;-74
2022/09/23 07:09:26;;;;;;;0.08;0.08;;;7.50;99.90;;;;;;4956824;28;20884;-74
2022/09/23 07:11:54;;;;;;;0.10;0.10;;;7.60;99.90;;;;;;4952034;28;20221;-75
2022/09/23 07:14:23;;;;;;;0.10;0.10;;;7.80;99.90;;;;;;4977572;28;20209;-74
2022/09/23 07:16:53;;;;;;;0.10;0.10;;;7.90;99.90;;;;;;4963994;28;20212;-75
2022/09/23 07:19:21;;;;;;;0.10;0.10;;;8.00;99.90;;;;;;4963797;29;20209;-75
2022/09/23 07:21:49;;;;;;;0.10;0.10;;;8.10;99.90;;;;;;4964001;28;20229;-74
2022/09/23 07:24:16;;;;;;;0.10;0.10;;;8.20;99.90;;;;;;4956736;28;20248;-74
2022/09/23 07:26:44;;;;;;;0.10;0.10;;;8.30;99.90;;;;;;4946152;29;20194;-74
2022/09/23 07:29:14;;;;;;;0.10;0.10;;;8.50;99.90;;;;;;4955053;28;20206;-74
2022/09/23 07:31:42;;;;;;;0.10;0.10;;;8.60;99.90;;;;;;4958161;28;20217;-74
2022/09/23 07:34:11;;;;;;;0.10;0.10;;;8.70;99.90;;;;;;4974316;28;20204;-74
2022/09/23 07:36:40;;;;;;;0.10;0.10;;;8.80;99.90;;;;;;4962368;28;20257;-75
2022/09/23 07:39:10;;;;;;;0.00;0.00;;;8.90;99.90;;;;;;4973931;28;20201;-74
2022/09/23 07:41:38;;;;;;;0.10;0.10;;;9.00;99.90;;;;;;4962003;28;20277;-74
2022/09/23 07:44:07;;;;;;;0.10;0.10;;;9.20;99.90;;;;;;4969822;28;20253;-74
2022/09/23 07:46:36;;;;;;;0.10;0.10;;;9.30;99.90;;;;;;4970258;28;20260;-74
2022/09/23 07:49:04;;;;;;;0.10;0.10;;;9.40;99.90;;;;;;4954822;29;20268;-75
2022/09/23 07:51:36;;;;;;;0.10;0.10;;;9.50;99.90;;;;;;4964107;28;20225;-74
2022/09/23 07:54:06;;;;;;;0.10;0.10;;;9.60;99.90;;;;;;4957151;28;20209;-75
2022/09/23 07:56:35;;;;;;;0.10;0.10;;;9.80;99.90;;;;;;4969063;28;20235;-74
2022/09/23 07:59:04;;;;;;;0.10;0.10;;;9.90;99.90;;;;;;4961591;28;20596;-74
2022/09/23 08:01:34;;;;;;;0.08;0.08;;;9.90;99.90;;;;;;4994649;23;20263;-75
2022/09/23 08:04:05;;;;;;;0.00;0.00;;;10.10;99.90;;;;;;4995732;28;20180;-76
2022/09/23 08:06:34;;;;;;;0.10;0.10;;;10.10;99.90;;;;;;4997421;28;20220;-76
2022/09/23 08:09:02;;;;;;;0.10;0.10;;;10.20;99.90;;;;;;4995265;28;20259;-76
2022/09/23 08:11:30;;;;;;;0.10;0.10;;;10.40;99.90;;;;;;4977090;28;20235;-75
2022/09/23 08:13:58;;;;;;;0.10;0.10;;;10.50;99.90;;;;;;4994410;28;20220;-77
2022/09/23 08:16:26;;;;;;;0.10;0.10;;;10.50;99.90;;;;;;4997504;28;20580;-76
2022/09/23 08:18:54;;;;;;;0.10;0.10;;;10.70;99.90;;;;;;5002619;28;20199;-76
2022/09/23 08:21:22;;;;;;;0.00;0.00;;;10.80;99.90;;;;;;4994366;28;20230;-76
2022/09/23 08:23:51;;;;;;;0.10;0.10;;;10.80;99.90;;;;;;4994303;28;20262;-75
2022/09/23 08:26:19;;;;;;;0.10;0.10;;;11.00;99.90;;;;;;4998856;28;20196;-75
2022/09/23 08:28:53;;;;;;;0.00;0.00;;;11.00;99.90;;;;;;4993623;28;20189;-76
2022/09/23 08:31:21;;;;;;;0.00;0.00;;;11.20;99.90;;;;;;4974935;28;20641;-76
2022/09/23 08:33:54;;;;;;;0.10;0.10;;;11.30;99.90;;;;;;4974879;28;20197;-76
2022/09/23 08:36:22;;;;;;;0.10;0.10;;;11.30;99.90;;;;;;4993796;28;20212;-76
2022/09/23 08:38:50;;;;;;;0.10;0.10;;;11.50;99.90;;;;;;4976180;28;20238;-76
2022/09/23 08:41:25;;;;;;;0.10;0.10;;;11.50;99.90;;;;;;5003475;28;20232;-77
2022/09/23 08:43:57;;;;;;;0.10;0.10;;;11.50;99.90;;;;;;4974213;28;20259;-76
2022/09/23 08:46:30;;;;;;;0.00;0.00;;;11.60;99.90;;;;;;4992028;28;20246;-77
2022/09/23 08:48:59;;;;;;;0.00;0.00;;;11.70;99.90;;;;;;4992311;28;20195;-77
2022/09/23 08:51:34;;;;;;;0.10;0.10;;;11.80;99.90;;;;;;4974183;28;20292;-77
2022/09/23 08:54:02;;;;;;;0.10;0.10;;;11.90;99.90;;;;;;5010634;28;20199;-78
2022/09/23 08:56:32;;;;;;;0.10;0.10;;;12.00;99.90;;;;;;5009802;28;20256;-77
2022/09/23 08:59:09;;;;;;;0.00;0.00;;;12.00;99.90;;;;;;5021501;28;20218;-78
2022/09/23 09:01:42;;;;;;;0.10;0.10;;;12.10;99.90;;;;;;5032175;28;20283;-79
2022/09/23 09:04:17;;;;;;;0.10;0.10;;;12.20;99.90;;;;;;5003708;28;20231;-77
2022/09/23 09:06:50;;;;;;;0.00;0.00;;;12.20;99.90;;;;;;4974465;28;20738;-76
2022/09/23 09:09:25;;;;;;;0.00;0.00;;;12.30;99.90;;;;;;4985757;28;20227;-77
2022/09/23 09:12:02;;;;;;;0.08;0.08;;;12.40;99.90;;;;;;4999011;28;20263;-76
2022/09/23 09:14:36;;;;;;;0.00;0.00;;;12.50;99.90;;;;;;4998350;28;20200;-75
2022/09/23 09:17:07;;;;;;;0.10;0.10;;;12.60;99.90;;;;;;5006594;28;20234;-76
2022/09/23 09:19:54;;;;;;;0.10;0.10;;;12.80;99.90;;;;;;5008834;28;20196;-76
2022/09/23 09:22:33;;;;;;;0.10;0.10;;;12.90;99.90;;;;;;4993835;28;20380;-76
2022/09/23 09:25:17;;;;;;;0.10;0.10;;;13.00;99.90;;;;;;4967317;28;20625;-75
2022/09/23 09:27:48;;;;;;;0.10;0.10;;;13.20;99.90;;;;;;4974439;28;20196;-75
2022/09/23 09:30:16;;;;;;;0.00;0.00;;;13.30;99.90;;;;;;4990497;28;20258;-75
2022/09/23 09:32:47;;;;;;;0.10;0.10;;;13.30;99.90;;;;;;4985149;28;20278;-77
2022/09/23 09:35:25;;;;;;;0.10;0.10;;;13.50;99.90;;;;;;4991120;28;20230;-76
2022/09/23 09:37:54;;;;;;;0.10;0.10;;;13.60;99.90;;;;;;4992473;28;20220;-76
2022/09/23 09:40:22;;;;;;;0.00;0.00;;;13.70;99.90;;;;;;4982726;28;20204;-76
2022/09/23 09:42:52;;;;;;;0.00;0.00;;;13.80;99.90;;;;;;4994689;28;20235;-76
2022/09/23 09:45:29;;;;;;;0.00;0.00;;;13.90;99.90;;;;;;4993484;28;20203;-76
2022/09/23 09:48:09;;;;;;;0.10;0.10;;;13.90;99.90;;;;;;4994147;28;20196;-75
2022/09/23 09:50:46;;;;;;;0.00;0.00;;;14.00;99.90;;;;;;4984550;28;20202;-77
2022/09/23 09:53:22;;;;;;;0.00;0.00;;;14.10;99.90;;;;;;4991481;28;20311;-76
2022/09/23 09:56:14;;;;;;;0.00;0.00;;;14.30;99.90;;;;;;4987422;28;20291;-76
2022/09/23 09:58:48;;;;;;;0.00;0.00;;;14.30;99.90;;;;;;4994689;28;20629;-76
2022/09/23 10:01:24;;;;;;;0.00;0.00;;;14.40;99.90;;;;;;4991469;28;20199;-77
2022/09/23 10:03:54;;;;;;;0.00;0.00;;;14.40;99.90;;;;;;4992120;28;20535;-75
2022/09/23 10:06:28;;;;;;;0.00;0.00;;;14.50;99.90;;;;;;4993198;28;20200;-76
2022/09/23 10:09:15;;;;;;;0.00;0.00;;;14.50;99.90;;;;;;5011415;28;20204;-76
2022/09/23 10:12:03;;;;;;;0.10;0.10;;;14.60;99.90;;;;;;5017242;28;20529;-76
2022/09/23 10:14:35;;;;;;;0.05;0.05;;;14.70;99.90;;;;;;5000892;28;20200;-76
2022/09/23 10:17:08;;;;;;;0.00;0.00;;;14.80;99.90;;;;;;4997460;28;20695;-77
2022/09/23 10:19:44;;;;;;;0.10;0.10;;;14.90;99.90;;;;;;4998342;28;20639;-76
2022/09/23 10:22:19;;;;;;;0.00;0.00;;;14.90;99.90;;;;;;4995685;28;20216;-76
2022/09/23 10:24:49;;;;;;;0.00;0.00;;;15.10;99.90;;;;;;4991046;28;20192;-75
2022/09/23 10:27:27;;;;;;;0.08;0.08;;;15.20;99.90;;;;;;4999396;28;20188;-78
2022/09/23 10:29:58;;;;;;;0.00;0.00;;;15.30;99.90;;;;;;4985364;28;20264;-75
2022/09/23 10:32:29;;;;;;;0.00;0.00;;;15.40;99.90;;;;;;4983188;28;20221;-76
2022/09/23 10:35:01;;;;;;;0.00;0.00;;;15.50;99.90;;;;;;4986828;28;20228;-76
2022/09/23 10:37:35;;;;;;;0.08;0.08;;;15.70;99.90;;;;;;4990790;28;20248;-75
2022/09/23 10:49:16;;;;;;;0.10;0.10;;;15.70;99.90;;;;;;5016361;28;20204;-76
2022/09/23 10:51:49;;;;;;;0.00;0.00;;;15.80;99.90;;;;;;4984656;28;20231;-75
2022/09/23 10:54:25;;;;;;;0.00;0.00;;;15.80;99.90;;;;;;4987743;28;20204;-75
2022/09/23 10:56:56;;;;;;;0.00;0.00;;;16.00;99.90;;;;;;4994118;28;20212;-75
2022/09/23 10:59:42;;;;;;;0.00;0.00;;;16.10;99.90;;;;;;4982941;28;20210;-76
2022/09/23 11:02:29;;;;;;;0.00;0.00;;;16.30;99.90;;;;;;4993527;28;20239;-75
2022/09/23 11:05:21;;;;;;;0.00;0.00;;;16.60;99.90;;;;;;4995500;28;20196;-76
2022/09/23 11:07:59;;;;;;;0.00;0.00;;;16.90;99.90;;;;;;4972318;28;20744;-74
2022/09/23 11:10:54;;;;;;;0.00;0.00;;;17.00;99.90;;;;;;4987003;28;20223;-75
2022/09/23 11:13:39;;;;;;;0.00;0.00;;;17.10;99.90;;;;;;4975153;28;20278;-75
2022/09/23 11:16:18;;;;;;;0.00;0.00;;;17.30;99.90;;;;;;4997857;28;20208;-75
2022/09/23 11:19:17;;;;;;;0.00;0.00;;;17.30;99.90;;;;;;5008987;28;20230;-74
2022/09/23 11:22:09;;;;;;;0.00;0.00;;;17.40;99.80;;;;;;4987680;28;20231;-74
2022/09/23 11:24:57;;;;;;;0.00;0.00;;;17.50;99.30;;;;;;4976652;28;20216;-75
2022/09/23 11:27:38;;;;;;;0.00;0.00;;;17.60;99.20;;;;;;5012449;28;20207;-75
2022/09/23 11:30:10;;;;;;;0.00;0.00;;;17.90;98.40;;;;;;4987505;28;20192;-75
2022/09/23 11:33:04;;;;;;;0.00;0.00;;;18.10;99.30;;;;;;4994435;28;20286;-75
2022/09/23 11:35:41;;;;;;;0.00;0.00;;;18.20;99.00;;;;;;4997293;28;20204;-75
2022/09/23 11:38:12;;;;;;;0.00;0.00;;;18.30;98.20;;;;;;4997272;28;20298;-76
2022/09/23 11:40:42;;;;;;;0.00;0.00;;;18.30;98.30;;;;;;4997427;28;20249;-75
2022/09/23 11:43:20;;;;;;;0.00;0.00;;;18.40;98.10;;;;;;4998368;28;20216;-76
2022/09/23 11:45:57;;;;;;;0.00;0.00;;;18.30;98.20;;;;;;4990195;28;20310;-76
2022/09/23 11:48:30;;;;;;;0.00;0.00;;;18.40;98.10;;;;;;4994049;28;20258;-76
2022/09/23 11:51:03;;;;;;;0.00;0.00;;;18.40;97.70;;;;;;4999583;28;20200;-75
2022/09/23 11:53:40;;;;;;;0.00;0.00;;;18.50;97.60;;;;;;4977838;28;20197;-75
2022/09/23 11:56:14;;;;;;;0.00;0.00;;;18.50;97.80;;;;;;4994733;28;20204;-75
2022/09/23 11:59:02;;;;;;;0.00;0.00;;;18.40;97.90;;;;;;4993490;28;20220;-75
2022/09/23 12:01:34;;;;;;;0.00;0.00;;;18.70;97.60;;;;;;4993238;28;20259;-76
2022/09/23 12:04:10;;;;;;;0.00;0.00;;;18.90;96.70;;;;;;4986225;28;20254;-75
2022/09/23 12:06:54;;;;;;;0.00;0.00;;;18.90;97.20;;;;;;4995551;28;20282;-75
2022/09/23 12:09:29;;;;;;;0.00;0.00;;;19.10;96.80;;;;;;4997817;28;20196;-76
2022/09/23 12:12:23;;;;;;;0.00;0.00;;;19.20;96.60;;;;;;4989915;28;20283;-75
2022/09/23 12:15:02;;;;;;;0.00;0.00;;;19.20;95.80;;;;;;4992914;28;20203;-75
2022/09/23 12:17:56;;;;;;;0.00;0.00;;;19.10;96.00;;;;;;5004066;28;20277;-75
2022/09/23 12:20:41;;;;;;;0.00;0.00;;;19.20;95.90;;;;;;4972674;28;20216;-77
2022/09/23 12:23:25;;;;;;;0.00;0.00;;;19.00;96.10;;;;;;4989335;28;20228;-76
2022/09/23 12:25:56;;;;;;;0.00;0.00;;;19.00;96.10;;;;;;4993729;28;20197;-75
2022/09/23 12:28:28;;;;;;;0.00;0.00;;;19.20;96.10;;;;;;4992057;28;20208;-76
2022/09/23 12:30:58;;;;;;;0.00;0.00;;;19.40;96.50;;;;;;4992690;28;20251;-75
2022/09/23 12:33:28;;;;;;;0.00;0.00;;;19.60;96.20;;;;;;5000955;28;20206;-75
2022/09/23 12:36:03;;;;;;;0.00;0.00;;;19.70;96.20;;;;;;5013106;28;20215;-75
2022/09/23 12:38:36;;;;;;;0.00;0.00;;;19.40;96.00;;;;;;4996482;28;20231;-75
2022/09/23 12:41:24;;;;;;;0.00;0.00;;;18.90;96.50;;;;;;4988532;28;20266;-75
2022/09/23 12:43:55;;;;;;;0.00;0.00;;;19.00;96.50;;;;;;4984745;28;20205;-75
2022/09/23 12:46:24;;;;;;;0.00;0.00;;;19.30;96.10;;;;;;4992083;28;20266;-75
2022/09/23 12:49:01;;;;;;;0.00;0.00;;;19.40;96.40;;;;;;4993409;28;20691;-76
2022/09/23 12:51:30;;;;;;;0.00;0.00;;;19.80;97.10;;;;;;5009383;28;20223;-75
2022/09/23 12:54:24;;;;;;;0.00;0.00;;;20.00;96.70;;;;;;4974167;28;20196;-75
2022/09/23 12:57:09;;;;;;;0.00;0.00;;;20.10;95.80;;;;;;4992777;28;20201;-75
2022/09/23 12:59:58;;;;;;;0.00;0.00;;;19.70;95.70;;;;;;4993435;28;20244;-74
2022/09/23 13:02:31;;;;;;;0.00;0.00;;;20.00;95.50;;;;;;5003778;28;20228;-75
2022/09/23 13:07:59;;;;;;;0.00;0.00;;;20.00;95.20;;;;;;4993781;28;20251;-76
2022/09/23 13:10:31;;;;;;;0.00;0.00;;;20.10;95.10;;;;;;4978748;28;20420;-76
2022/09/23 13:13:01;;;;;;;0.00;0.00;;;20.20;95.50;;;;;;4990543;28;20225;-76
2022/09/23 13:15:31;;;;;;;0.00;0.00;;;20.40;95.40;;;;;;4992192;28;20208;-76
2022/09/23 13:18:39;;;;;;;0.00;0.00;;;20.40;94.90;;;;;;4995657;28;20263;-76
2022/09/23 13:21:17;;;;;;;0.00;0.00;;;20.60;95.10;;;;;;4986103;28;20240;-76
2022/09/23 13:24:18;;;;;;;0.00;0.00;;;20.40;94.50;;;;;;4987678;28;20664;-76
2022/09/23 13:26:50;;;;;;;0.00;0.00;;;20.10;95.20;;;;;;4972612;28;20204;-76
2022/09/23 13:29:23;;;;;;;0.00;0.00;;;20.30;95.20;;;;;;4972615;28;20600;-75
2022/09/23 13:31:51;;;;;;;0.00;0.00;;;20.30;95.40;;;;;;4973098;28;20221;-76
2022/09/23 13:34:22;;;;;;;0.00;0.00;;;20.00;95.80;;;;;;4975085;28;20215;-77
2022/09/23 13:36:50;;;;;;;0.00;0.00;;;19.70;95.60;;;;;;4992455;28;20266;-75